Time;durP1;ratioP1;P1;durP2;ratioP2;P2;SDS_P1;SDS_P2;PMS_P1;PMS_P2;Temp;Humidity;BMP_temperature;BMP_pressure;BME280_temperature;BME280_humidity;BME280_pressure;Samples;Min_cycle;Max_cycle;Signal;HPM_P1;HPM_P2
2021/03/15 00:01:05;;;;;;;0.35;0.20;;;19.60;46.00;;;;;;6195453;28;20030;-65
2021/03/15 00:04:06;;;;;;;0.98;0.22;;;19.60;46.10;;;;;;6195386;28;20037;-65
2021/03/15 00:07:06;;;;;;;0.20;0.20;;;19.50;45.80;;;;;;6195311;28;20022;-65
2021/03/15 00:10:08;;;;;;;0.70;0.30;;;19.50;45.90;;;;;;6194827;28;20031;-66
2021/03/15 00:13:09;;;;;;;0.25;0.22;;;19.60;46.00;;;;;;6195162;28;20493;-65
2021/03/15 00:16:10;;;;;;;0.10;0.10;;;19.50;45.90;;;;;;6165157;28;20376;-65
2021/03/15 00:19:10;;;;;;;0.20;0.20;;;19.60;46.00;;;;;;6195110;28;20030;-65
2021/03/15 00:22:11;;;;;;;0.35;0.30;;;19.50;45.90;;;;;;6195379;28;20597;-65
2021/03/15 00:25:13;;;;;;;0.30;0.20;;;19.60;46.00;;;;;;6195549;28;20041;-65
2021/03/15 00:28:13;;;;;;;0.20;0.20;;;19.50;45.80;;;;;;6194549;28;20030;-65
2021/03/15 00:31:14;;;;;;;0.10;0.10;;;19.50;46.00;;;;;;6194708;28;20552;-65
2021/03/15 00:34:14;;;;;;;0.40;0.25;;;19.50;45.90;;;;;;6194886;28;20085;-65
2021/03/15 00:37:15;;;;;;;0.28;0.28;;;19.50;45.90;;;;;;6194715;28;20480;-65
2021/03/15 00:40:21;;;;;;;1.10;0.50;;;19.60;46.00;;;;;;6194843;28;20084;-65
2021/03/15 00:43:21;;;;;;;0.40;0.30;;;19.50;46.00;;;;;;6194781;28;20117;-65
2021/03/15 00:46:22;;;;;;;0.10;0.10;;;19.60;45.90;;;;;;6194605;28;20041;-66
2021/03/15 00:49:22;;;;;;;0.35;0.20;;;19.50;46.00;;;;;;6194656;28;20026;-65
2021/03/15 00:52:23;;;;;;;0.45;0.28;;;19.50;46.00;;;;;;6194570;28;20039;-65
2021/03/15 00:55:24;;;;;;;0.50;0.20;;;19.50;45.90;;;;;;6194748;28;20027;-65
2021/03/15 00:58:25;;;;;;;0.30;0.20;;;19.50;46.00;;;;;;6194632;28;20385;-65
2021/03/15 01:01:25;;;;;;;0.50;0.17;;;19.50;46.10;;;;;;6194687;28;20033;-65
2021/03/15 01:04:26;;;;;;;0.55;0.35;;;19.50;45.90;;;;;;6194081;28;20339;-65
2021/03/15 01:07:27;;;;;;;0.25;0.20;;;19.50;46.00;;;;;;6194505;28;20030;-65
2021/03/15 01:10:28;;;;;;;0.20;0.20;;;19.50;46.00;;;;;;6195434;28;20023;-65
2021/03/15 01:13:29;;;;;;;0.22;0.22;;;19.50;45.90;;;;;;6199123;28;20084;-65
2021/03/15 01:16:29;;;;;;;0.40;0.20;;;19.50;45.90;;;;;;6198921;28;20072;-65
2021/03/15 01:19:30;;;;;;;0.30;0.20;;;19.50;46.00;;;;;;6198906;28;20035;-65
2021/03/15 01:22:31;;;;;;;0.47;0.20;;;19.50;45.90;;;;;;6198389;28;20053;-65
2021/03/15 01:25:35;;;;;;;0.10;0.10;;;19.50;45.90;;;;;;6198968;28;20042;-65
2021/03/15 01:28:35;;;;;;;0.63;0.30;;;19.50;45.90;;;;;;6198556;28;20085;-65
2021/03/15 01:31:35;;;;;;;0.10;0.10;;;19.50;46.00;;;;;;6151108;28;20078;-65
2021/03/15 01:34:36;;;;;;;1.63;0.20;;;19.50;46.00;;;;;;6185635;28;20050;-65
2021/03/15 01:37:36;;;;;;;0.10;0.10;;;19.50;45.90;;;;;;6198532;28;20058;-65
2021/03/15 01:40:39;;;;;;;0.35;0.20;;;19.50;46.00;;;;;;6198374;28;20030;-65
2021/03/15 01:43:39;;;;;;;1.55;0.30;;;19.50;46.00;;;;;;6198531;28;20034;-65
2021/03/15 01:46:40;;;;;;;0.60;0.20;;;19.50;45.90;;;;;;6198770;28;20041;-65
2021/03/15 01:49:40;;;;;;;0.63;0.30;;;19.50;46.00;;;;;;6171779;28;20035;-65
2021/03/15 01:52:43;;;;;;;0.20;0.17;;;19.50;46.70;;;;;;6149617;28;20035;-65
2021/03/15 01:55:44;;;;;;;0.57;0.20;;;19.50;46.00;;;;;;6197748;28;20497;-65
2021/03/15 01:58:45;;;;;;;0.20;0.20;;;19.50;46.00;;;;;;6186088;28;20031;-66
2021/03/15 02:01:46;;;;;;;0.45;0.20;;;19.50;46.00;;;;;;6150314;28;20034;-65
2021/03/15 02:04:47;;;;;;;0.20;0.20;;;19.50;46.10;;;;;;6179709;28;20053;-65
2021/03/15 02:07:47;;;;;;;0.30;0.30;;;19.50;46.00;;;;;;6190533;28;20290;-65
2021/03/15 02:10:48;;;;;;;0.30;0.20;;;19.50;46.00;;;;;;6196122;28;20394;-65
2021/03/15 02:13:56;;;;;;;0.20;0.20;;;19.50;46.60;;;;;;6198075;28;20167;-65
2021/03/15 02:17:11;;;;;;;0.45;0.28;;;19.50;46.00;;;;;;6197412;28;20521;-65
2021/03/15 02:20:37;;;;;;;0.90;0.20;;;19.50;46.00;;;;;;6198013;28;20027;-65
2021/03/15 02:24:20;;;;;;;0.28;0.20;;;19.50;46.00;;;;;;6169265;28;20063;-65
2021/03/15 02:27:29;;;;;;;0.40;0.30;;;19.50;45.90;;;;;;6181545;28;20054;-65
2021/03/15 02:30:56;;;;;;;0.40;0.17;;;19.50;46.00;;;;;;6194926;28;20484;-65
2021/03/15 02:34:15;;;;;;;0.50;0.50;;;19.50;46.00;;;;;;6195217;28;20469;-65
2021/03/15 02:37:19;;;;;;;0.30;0.20;;;19.50;46.00;;;;;;6187847;28;20042;-65
2021/03/15 02:40:28;;;;;;;0.28;0.25;;;19.50;46.00;;;;;;6172819;28;20381;-65
2021/03/15 02:43:37;;;;;;;0.30;0.30;;;19.50;46.00;;;;;;6197388;28;20028;-65
2021/03/15 02:46:41;;;;;;;1.65;0.22;;;19.50;46.00;;;;;;6160895;28;20069;-65
2021/03/15 02:49:43;;;;;;;0.20;0.20;;;19.50;46.00;;;;;;6160401;28;20030;-65
2021/03/15 02:52:48;;;;;;;0.50;0.17;;;19.50;46.00;;;;;;6196593;28;20026;-65
2021/03/15 02:55:50;;;;;;;0.20;0.17;;;19.50;46.00;;;;;;6196729;28;20122;-65
2021/03/15 02:58:57;;;;;;;0.55;0.20;;;19.50;46.00;;;;;;6196648;28;20023;-65
2021/03/15 03:01:59;;;;;;;0.55;0.30;;;19.50;46.00;;;;;;6196628;28;20023;-65
2021/03/15 03:05:02;;;;;;;0.82;0.30;;;19.50;46.00;;;;;;6196619;28;20557;-65
2021/03/15 03:08:04;;;;;;;0.50;0.20;;;19.50;46.00;;;;;;6196538;28;20243;-65
2021/03/15 03:11:05;;;;;;;1.20;0.30;;;19.50;46.00;;;;;;6196444;28;20026;-65
2021/03/15 03:14:09;;;;;;;0.15;0.15;;;19.50;46.00;;;;;;6196337;28;20117;-65
2021/03/15 03:17:10;;;;;;;0.32;0.20;;;19.50;46.00;;;;;;6196214;28;20057;-65
2021/03/15 03:20:14;;;;;;;0.52;0.20;;;19.50;46.00;;;;;;6196091;28;20381;-65
2021/03/15 03:23:17;;;;;;;0.20;0.20;;;19.50;46.00;;;;;;6196267;28;20385;-65
2021/03/15 03:26:21;;;;;;;0.60;0.30;;;19.50;46.00;;;;;;6196207;28;20081;-65
2021/03/15 03:29:23;;;;;;;0.60;0.30;;;19.50;46.00;;;;;;6195905;28;20458;-65
2021/03/15 03:32:23;;;;;;;0.85;0.28;;;19.50;46.00;;;;;;6196058;28;20049;-65
2021/03/15 03:35:25;;;;;;;0.68;0.10;;;19.50;46.00;;;;;;6195378;28;20088;-65
2021/03/15 03:38:25;;;;;;;0.57;0.30;;;19.50;46.00;;;;;;6195911;28;20042;-65
2021/03/15 03:41:26;;;;;;;0.20;0.20;;;19.50;46.00;;;;;;6186727;28;20023;-65
2021/03/15 03:44:27;;;;;;;0.40;0.30;;;19.50;46.00;;;;;;6147773;28;20093;-65
2021/03/15 03:47:27;;;;;;;0.25;0.22;;;19.50;46.00;;;;;;6186475;28;20418;-65
2021/03/15 03:50:32;;;;;;;0.20;0.20;;;19.50;46.00;;;;;;6187059;28;20394;-65
2021/03/15 03:53:45;;;;;;;0.77;0.38;;;19.50;46.00;;;;;;6189017;28;20023;-65
2021/03/15 03:57:20;;;;;;;0.47;0.40;;;19.50;46.00;;;;;;6184155;28;20077;-65
2021/03/15 04:00:21;;;;;;;0.70;0.40;;;19.50;46.00;;;;;;6188315;28;20389;-65
2021/03/15 04:03:23;;;;;;;0.52;0.30;;;19.50;46.00;;;;;;6195183;28;20025;-65
2021/03/15 04:06:28;;;;;;;0.90;0.30;;;19.50;46.00;;;;;;6195334;28;20362;-65
2021/03/15 04:09:31;;;;;;;0.88;0.30;;;19.50;46.00;;;;;;6195058;28;20023;-65
2021/03/15 04:12:34;;;;;;;0.30;0.20;;;19.50;46.10;;;;;;6195029;28;20023;-65
2021/03/15 04:15:37;;;;;;;0.38;0.20;;;19.50;46.00;;;;;;6194849;28;20381;-65
2021/03/15 04:18:42;;;;;;;0.90;0.40;;;19.50;46.00;;;;;;6194903;28;20388;-65
2021/03/15 04:21:43;;;;;;;;;;;19.50;46.00;;;;;;6195153;28;20358;-65
2021/03/15 04:24:45;;;;;;;0.80;0.30;;;19.50;46.00;;;;;;6194896;28;19905;-65
2021/03/15 04:27:50;;;;;;;0.73;0.30;;;19.50;46.00;;;;;;6195040;28;20080;-65
2021/03/15 04:30:52;;;;;;;0.25;0.25;;;19.50;46.00;;;;;;6195150;28;20117;-65
2021/03/15 04:33:54;;;;;;;1.08;0.40;;;19.50;46.00;;;;;;6194957;28;20034;-65
2021/03/15 04:36:57;;;;;;;0.20;0.20;;;19.50;46.00;;;;;;6195297;28;20093;-65
2021/03/15 04:39:57;;;;;;;0.93;0.30;;;19.50;46.00;;;;;;6194342;28;20026;-65
2021/03/15 04:43:00;;;;;;;1.02;0.40;;;19.50;46.00;;;;;;6178769;28;20034;-66
2021/03/15 04:46:00;;;;;;;1.17;0.35;;;19.50;46.00;;;;;;6161317;28;20369;-66
2021/03/15 04:49:07;;;;;;;1.95;0.60;;;19.50;46.00;;;;;;6196037;28;20053;-66
2021/03/15 04:52:08;;;;;;;0.47;0.30;;;19.50;46.00;;;;;;6199473;28;20106;-66
2021/03/15 04:55:09;;;;;;;0.52;0.30;;;19.50;46.00;;;;;;6199774;28;20031;-66
2021/03/15 04:58:13;;;;;;;0.60;0.22;;;19.50;46.00;;;;;;6198959;28;20023;-66
2021/03/15 05:01:15;;;;;;;0.95;0.30;;;19.50;46.00;;;;;;6199443;28;20022;-66
2021/03/15 05:04:18;;;;;;;0.20;0.20;;;19.50;46.00;;;;;;6199500;28;20039;-66
2021/03/15 05:07:20;;;;;;;0.17;0.17;;;19.50;46.10;;;;;;6198980;28;20478;-66
2021/03/15 05:10:21;;;;;;;0.60;0.20;;;19.50;46.00;;;;;;6199019;28;20026;-66
2021/03/15 05:13:23;;;;;;;0.57;0.20;;;19.50;45.80;;;;;;6186767;28;20034;-66
2021/03/15 05:16:25;;;;;;;0.22;0.20;;;19.50;45.70;;;;;;6198452;28;20054;-66
2021/03/15 05:19:26;;;;;;;0.65;0.30;;;19.50;45.60;;;;;;6198814;28;20613;-66
2021/03/15 05:22:27;;;;;;;1.10;0.20;;;19.50;45.60;;;;;;6198964;28;20026;-66
2021/03/15 05:25:27;;;;;;;0.60;0.30;;;19.50;45.60;;;;;;6199215;28;20050;-66
2021/03/15 05:28:30;;;;;;;0.63;0.30;;;19.50;45.60;;;;;;6199056;28;20425;-66
2021/03/15 05:31:31;;;;;;;0.40;0.25;;;19.50;45.70;;;;;;6199083;28;20466;-66
2021/03/15 05:34:33;;;;;;;0.20;0.20;;;19.50;45.60;;;;;;6198132;28;20101;-66
2021/03/15 05:37:34;;;;;;;0.20;0.20;;;19.50;45.70;;;;;;6198704;28;20038;-66
2021/03/15 05:40:37;;;;;;;0.20;0.20;;;19.50;45.60;;;;;;6198685;28;20532;-66
2021/03/15 05:43:58;;;;;;;0.60;0.40;;;19.50;45.50;;;;;;6198392;28;20022;-66
2021/03/15 05:47:13;;;;;;;0.17;0.17;;;19.50;45.60;;;;;;6198642;28;20022;-66
2021/03/15 05:50:47;;;;;;;0.85;0.40;;;19.50;45.50;;;;;;6198330;28;20014;-66
2021/03/15 05:54:25;;;;;;;0.50;0.20;;;19.50;45.50;;;;;;6197800;28;20038;-66
2021/03/15 05:57:44;;;;;;;0.82;0.30;;;19.50;45.50;;;;;;6197954;28;20386;-66
2021/03/15 06:00:55;;;;;;;0.75;0.30;;;19.50;45.50;;;;;;6190202;28;20626;-65
2021/03/15 06:04:13;;;;;;;2.25;0.40;;;19.50;45.40;;;;;;6170027;28;20025;-66
2021/03/15 06:07:20;;;;;;;0.90;0.47;;;19.60;45.60;;;;;;6169165;28;20475;-65
2021/03/15 06:10:35;;;;;;;2.72;0.30;;;19.50;45.70;;;;;;6184367;28;20058;-66
2021/03/15 06:13:36;;;;;;;3.30;0.40;;;19.50;45.70;;;;;;6171643;28;20446;-66
2021/03/15 06:16:37;;;;;;;1.73;0.63;;;19.50;45.70;;;;;;6171429;28;20046;-65
2021/03/15 06:19:38;;;;;;;1.08;0.30;;;19.60;45.90;;;;;;6184463;28;20035;-66
2021/03/15 06:22:39;;;;;;;0.70;0.30;;;19.60;45.80;;;;;;6185731;28;20117;-65
2021/03/15 06:25:40;;;;;;;3.75;0.43;;;19.60;46.00;;;;;;6171379;28;20079;-66
2021/03/15 06:28:40;;;;;;;7.07;0.57;;;19.60;46.00;;;;;;6178115;28;20031;-66
2021/03/15 06:31:49;;;;;;;2.03;0.40;;;19.60;46.00;;;;;;6176428;28;20094;-66
2021/03/15 06:34:49;;;;;;;1.35;0.45;;;19.60;46.10;;;;;;6186715;28;20118;-66
2021/03/15 06:37:50;;;;;;;9.57;0.68;;;19.60;46.20;;;;;;6194413;28;20030;-66
2021/03/15 06:40:52;;;;;;;1.25;0.47;;;19.60;46.10;;;;;;6181507;28;20035;-66
2021/03/15 06:43:53;;;;;;;2.47;0.50;;;19.60;46.00;;;;;;6177282;28;20026;-66
2021/03/15 06:46:53;;;;;;;1.98;0.40;;;19.60;46.00;;;;;;6176133;28;20038;-66
2021/03/15 06:49:54;;;;;;;5.15;0.47;;;19.60;46.00;;;;;;6175502;28;20033;-66
2021/03/15 06:52:57;;;;;;;3.97;0.40;;;19.60;46.00;;;;;;6186525;28;21480;-66
2021/03/15 06:55:57;;;;;;;4.57;0.50;;;19.60;46.10;;;;;;6168987;28;20521;-66
2021/03/15 06:58:58;;;;;;;2.17;0.50;;;19.60;46.10;;;;;;6171440;28;20039;-66
2021/03/15 07:01:58;;;;;;;3.40;0.52;;;19.60;46.00;;;;;;6169356;28;20490;-66
2021/03/15 07:05:14;;;;;;;1.48;0.45;;;19.60;46.10;;;;;;6178154;28;20113;-65
2021/03/15 07:08:18;;;;;;;1.35;0.47;;;19.60;46.10;;;;;;6177764;28;20397;-66
2021/03/15 07:11:21;;;;;;;1.90;0.50;;;19.60;46.10;;;;;;6178430;28;20035;-66
2021/03/15 07:14:24;;;;;;;1.63;0.45;;;19.60;46.20;;;;;;6175621;28;20104;-66
2021/03/15 07:17:27;;;;;;;5.78;0.40;;;19.60;46.20;;;;;;6196385;28;20050;-66
2021/03/15 07:20:41;;;;;;;1.35;0.50;;;19.60;46.20;;;;;;6197358;28;20033;-66
2021/03/15 07:23:44;;;;;;;3.78;0.50;;;19.60;46.20;;;;;;6196259;28;20050;-66
2021/03/15 07:26:45;;;;;;;2.35;0.70;;;19.60;46.10;;;;;;6196571;28;20019;-66
2021/03/15 07:29:46;;;;;;;2.33;0.52;;;19.60;46.10;;;;;;6196946;28;20030;-66
2021/03/15 07:32:46;;;;;;;5.32;0.52;;;19.60;46.10;;;;;;6196636;28;20370;-66
2021/03/15 07:35:48;;;;;;;1.05;0.50;;;19.60;46.20;;;;;;6196493;28;20041;-66
2021/03/15 07:38:49;;;;;;;0.90;0.50;;;19.60;46.10;;;;;;6196252;28;20073;-66
2021/03/15 07:41:52;;;;;;;1.45;0.50;;;19.60;46.00;;;;;;6195599;28;20031;-66
2021/03/15 07:44:52;;;;;;;0.88;0.35;;;19.60;46.10;;;;;;6196340;28;20080;-66
2021/03/15 07:47:53;;;;;;;4.30;0.50;;;19.60;46.00;;;;;;6196552;28;20057;-66
2021/03/15 07:50:57;;;;;;;1.33;0.52;;;19.60;46.00;;;;;;6196066;28;20042;-66
2021/03/15 07:54:09;;;;;;;0.98;0.40;;;19.60;46.00;;;;;;6196237;28;20076;-66
2021/03/15 07:57:17;;;;;;;1.08;0.40;;;19.60;46.50;;;;;;6190933;28;20042;-66
2021/03/15 08:00:18;;;;;;;2.17;0.60;;;19.70;46.50;;;;;;6196160;28;20389;-67
2021/03/15 08:03:19;;;;;;;3.53;0.30;;;19.70;46.30;;;;;;6195647;28;20030;-66
2021/03/15 08:06:21;;;;;;;3.83;0.75;;;19.70;46.10;;;;;;6164531;28;20117;-65
2021/03/15 08:09:22;;;;;;;1.55;0.50;;;19.70;46.00;;;;;;6178501;28;20052;-65
2021/03/15 08:12:24;;;;;;;4.03;0.50;;;19.70;46.10;;;;;;6172572;28;20027;-65
2021/03/15 08:15:25;;;;;;;3.20;0.40;;;19.70;46.20;;;;;;6181732;28;20034;-65
2021/03/15 08:18:28;;;;;;;1.10;0.40;;;19.70;46.20;;;;;;6195654;28;20054;-65
2021/03/15 08:21:36;;;;;;;2.72;0.60;;;19.70;46.20;;;;;;6187881;28;20103;-65
2021/03/15 08:24:38;;;;;;;0.95;0.40;;;19.70;46.20;;;;;;6174084;28;20552;-65
2021/03/15 08:27:40;;;;;;;1.63;0.30;;;19.70;46.90;;;;;;6193975;28;20037;-65
2021/03/15 08:30:47;;;;;;;1.45;0.47;;;19.60;46.10;;;;;;6195315;28;20030;-65
2021/03/15 08:33:49;;;;;;;2.28;0.77;;;19.70;46.30;;;;;;6195087;28;20473;-65
2021/03/15 08:36:49;;;;;;;2.85;0.60;;;19.60;45.90;;;;;;6195011;28;20045;-65
2021/03/15 08:39:50;;;;;;;2.08;0.70;;;19.60;45.40;;;;;;6193269;28;20027;-65
2021/03/15 08:43:22;;;;;;;1.40;0.50;;;19.60;45.60;;;;;;6195578;28;20034;-65
2021/03/15 08:46:23;;;;;;;1.33;0.60;;;19.60;45.80;;;;;;6194788;28;20495;-65
2021/03/15 08:49:30;;;;;;;1.08;0.50;;;19.60;45.90;;;;;;6195316;28;20048;-65
2021/03/15 08:52:35;;;;;;;3.10;0.70;;;19.60;45.90;;;;;;6194701;28;20122;-65
2021/03/15 08:55:49;;;;;;;1.80;0.68;;;19.60;46.00;;;;;;6195635;28;20509;-65
2021/03/15 08:58:51;;;;;;;1.95;0.60;;;19.60;46.00;;;;;;6193049;28;20477;-65
2021/03/15 09:01:56;;;;;;;1.08;0.40;;;19.70;46.00;;;;;;6186606;28;20027;-65
2021/03/15 09:05:16;;;;;;;;;;;19.60;46.00;;;;;;6195624;28;20424;-65
2021/03/15 09:08:17;;;;;;;1.52;0.63;;;19.60;46.00;;;;;;6194853;28;19910;-65
2021/03/15 09:11:36;;;;;;;2.00;0.50;;;19.60;46.00;;;;;;6187899;28;20133;-65
2021/03/15 09:14:37;;;;;;;4.28;0.40;;;19.60;46.10;;;;;;6184249;28;20031;-66
2021/03/15 09:17:38;;;;;;;2.17;0.50;;;19.70;46.20;;;;;;6180684;28;20055;-64
2021/03/15 09:20:39;;;;;;;0.80;0.40;;;19.70;46.40;;;;;;6175406;28;20030;-64
2021/03/15 09:23:39;;;;;;;0.82;0.30;;;19.70;46.30;;;;;;6194904;28;20536;-64
2021/03/15 09:26:49;;;;;;;0.55;0.50;;;19.70;46.20;;;;;;6194865;28;20038;-64
2021/03/15 09:29:57;;;;;;;1.35;0.50;;;19.70;46.20;;;;;;6194398;28;20022;-64
2021/03/15 09:32:58;;;;;;;1.65;0.43;;;19.60;46.20;;;;;;6197627;28;20030;-64
2021/03/15 09:35:58;;;;;;;3.20;1.27;;;19.60;46.10;;;;;;6198637;28;20034;-64
2021/03/15 09:38:59;;;;;;;4.20;1.30;;;19.60;44.10;;;;;;6199294;28;20029;-64
2021/03/15 09:42:00;;;;;;;1.55;0.77;;;19.60;44.20;;;;;;6198867;28;20035;-64
2021/03/15 09:45:01;;;;;;;3.50;0.98;;;19.60;44.80;;;;;;6199041;28;20109;-64
2021/03/15 09:48:14;;;;;;;1.88;0.70;;;19.60;45.00;;;;;;6198438;28;20519;-64
2021/03/15 09:51:16;;;;;;;0.95;0.55;;;19.60;45.30;;;;;;6198269;28;20561;-64
2021/03/15 09:54:16;;;;;;;4.10;0.68;;;19.60;45.30;;;;;;6198815;28;20026;-64
2021/03/15 09:57:19;;;;;;;6.20;0.80;;;19.60;45.10;;;;;;6187569;28;20393;-66
2021/03/15 10:00:20;;;;;;;1.48;0.57;;;19.60;44.90;;;;;;6174375;28;20042;-64
2021/03/15 10:03:26;;;;;;;1.48;0.60;;;19.60;45.40;;;;;;6193941;28;20081;-64
2021/03/15 10:06:27;;;;;;;2.55;0.63;;;19.70;45.40;;;;;;6186743;28;20050;-64
2021/03/15 10:09:30;;;;;;;8.15;0.85;;;19.60;45.60;;;;;;6190233;28;20030;-64
2021/03/15 10:12:31;;;;;;;2.45;0.60;;;19.70;45.60;;;;;;6185873;28;20022;-64
2021/03/15 10:15:31;;;;;;;1.00;0.60;;;19.60;45.70;;;;;;6184290;28;20038;-64
2021/03/15 10:18:32;;;;;;;2.17;0.90;;;19.60;45.80;;;;;;6187973;28;20038;-64
2021/03/15 10:21:33;;;;;;;1.58;0.60;;;19.60;45.90;;;;;;6168047;28;20080;-64
2021/03/15 10:24:34;;;;;;;2.05;0.70;;;19.60;45.90;;;;;;6197689;28;20034;-64
2021/03/15 10:27:37;;;;;;;1.67;0.70;;;19.70;45.90;;;;;;6197992;28;20482;-64
2021/03/15 10:30:37;;;;;;;3.10;0.73;;;19.70;46.00;;;;;;6197985;28;20393;-64
2021/03/15 10:33:43;;;;;;;0.52;0.30;;;19.60;46.00;;;;;;6197562;28;20056;-64
2021/03/15 10:36:44;;;;;;;1.13;0.52;;;19.60;45.90;;;;;;6197635;28;20034;-64
2021/03/15 10:39:45;;;;;;;1.88;0.60;;;19.70;46.00;;;;;;6197312;28;20038;-64
2021/03/15 10:42:47;;;;;;;2.13;0.65;;;19.60;45.80;;;;;;6196119;28;20064;-64
2021/03/15 10:45:47;;;;;;;1.63;0.50;;;19.60;46.00;;;;;;6185768;28;20393;-64
2021/03/15 10:48:48;;;;;;;2.17;0.70;;;19.70;46.00;;;;;;6188781;28;20034;-65
2021/03/15 10:51:51;;;;;;;4.68;1.15;;;19.70;46.10;;;;;;6197347;28;20478;-65
2021/03/15 10:54:51;;;;;;;2.30;0.52;;;19.60;46.00;;;;;;6183134;28;20100;-64
2021/03/15 10:58:10;;;;;;;0.68;0.30;;;19.70;46.10;;;;;;6181703;28;20022;-65
2021/03/15 11:01:11;;;;;;;2.28;0.52;;;19.70;46.10;;;;;;6195278;28;20035;-65
2021/03/15 11:04:12;;;;;;;1.02;0.40;;;19.70;46.10;;;;;;6197167;28;20037;-65
2021/03/15 11:07:23;;;;;;;1.05;0.63;;;19.70;46.10;;;;;;6197734;28;20417;-65
2021/03/15 11:10:33;;;;;;;1.83;0.50;;;19.70;46.20;;;;;;6196908;28;20030;-65
2021/03/15 11:13:44;;;;;;;3.38;0.50;;;19.70;46.20;;;;;;6196345;28;20081;-65
2021/03/15 11:16:44;;;;;;;0.98;0.40;;;19.60;46.10;;;;;;6196491;28;20046;-65
2021/03/15 11:19:52;;;;;;;1.27;0.70;;;19.70;46.20;;;;;;6196874;28;20085;-65
2021/03/15 11:22:53;;;;;;;0.80;0.60;;;19.70;46.20;;;;;;6196816;28;20026;-64
2021/03/15 11:26:09;;;;;;;0.68;0.47;;;19.70;46.20;;;;;;6196636;28;20042;-65
2021/03/15 11:29:09;;;;;;;1.92;0.70;;;19.70;46.20;;;;;;6196706;28;20066;-65
2021/03/15 11:32:13;;;;;;;2.33;0.63;;;19.60;46.20;;;;;;6186779;28;20393;-65
2021/03/15 11:35:20;;;;;;;1.25;0.40;;;19.70;46.30;;;;;;6186113;28;20038;-64
2021/03/15 11:38:22;;;;;;;0.65;0.40;;;19.70;46.20;;;;;;6177931;28;20109;-65
2021/03/15 11:41:26;;;;;;;0.82;0.40;;;19.70;46.30;;;;;;6166406;28;20023;-65
2021/03/15 11:44:26;;;;;;;1.15;0.55;;;19.70;46.30;;;;;;6176294;28;20113;-65
2021/03/15 11:47:27;;;;;;;1.67;0.40;;;19.70;46.30;;;;;;6196205;28;20025;-65
2021/03/15 11:50:29;;;;;;;1.75;0.70;;;19.70;46.20;;;;;;6173758;28;20030;-65
2021/03/15 11:53:29;;;;;;;1.20;0.40;;;19.70;45.90;;;;;;6156382;28;20347;-65
2021/03/15 11:56:29;;;;;;;2.45;0.40;;;19.70;46.20;;;;;;6195854;28;20092;-65
2021/03/15 11:59:30;;;;;;;1.48;0.45;;;19.70;46.20;;;;;;6180741;28;20074;-65
2021/03/15 12:02:31;;;;;;;1.95;0.70;;;19.70;46.20;;;;;;6177021;28;20023;-65
2021/03/15 12:05:31;;;;;;;6.22;0.50;;;19.70;46.20;;;;;;6195781;28;20061;-65
2021/03/15 12:08:32;;;;;;;0.57;0.40;;;19.70;46.20;;;;;;6175285;28;20569;-65
2021/03/15 12:11:33;;;;;;;2.60;0.50;;;19.70;46.20;;;;;;6184642;28;20026;-65
2021/03/15 12:14:33;;;;;;;1.08;0.40;;;19.70;46.20;;;;;;6188445;28;20437;-64
2021/03/15 12:17:34;;;;;;;0.30;0.30;;;19.70;46.20;;;;;;6209587;28;20146;-65
2021/03/15 12:20:36;;;;;;;0.90;0.50;;;19.70;46.20;;;;;;6194696;28;20030;-65
2021/03/15 12:23:37;;;;;;;0.77;0.40;;;19.70;46.20;;;;;;6193167;28;20106;-67
2021/03/15 12:26:37;;;;;;;2.95;0.52;;;19.70;46.30;;;;;;6182450;28;20042;-67
2021/03/15 12:29:38;;;;;;;7.20;0.60;;;19.80;46.00;;;;;;6193991;28;20038;-67
2021/03/15 12:32:39;;;;;;;2.97;0.60;;;19.80;46.00;;;;;;6194403;28;20068;-68
2021/03/15 12:35:39;;;;;;;2.58;0.55;;;19.80;46.20;;;;;;5302819;28;10000815;-67
2021/03/15 12:38:40;;;;;;;1.52;0.60;;;19.80;46.30;;;;;;6170737;28;20031;-67
2021/03/15 12:41:40;;;;;;;2.97;0.40;;;19.80;46.30;;;;;;6192808;28;20030;-68
2021/03/15 12:44:41;;;;;;;1.17;0.45;;;19.70;46.20;;;;;;6195377;28;20050;-67
2021/03/15 12:47:42;;;;;;;1.13;0.50;;;19.70;46.20;;;;;;6195060;28;20022;-68
2021/03/15 12:50:42;;;;;;;0.88;0.50;;;19.70;46.30;;;;;;6194138;28;20022;-67
2021/03/15 12:53:43;;;;;;;1.70;0.40;;;19.70;46.30;;;;;;6194752;28;20019;-68
2021/03/15 12:56:43;;;;;;;5.80;0.60;;;19.70;46.30;;;;;;6194922;28;20509;-68
2021/03/15 12:59:44;;;;;;;1.90;1.17;;;19.70;46.30;;;;;;6185023;28;20034;-68
2021/03/15 13:02:44;;;;;;;2.75;1.50;;;19.60;45.60;;;;;;6170923;28;20026;-68
2021/03/15 13:05:45;;;;;;;6.72;1.23;;;19.60;43.40;;;;;;6170827;28;20034;-68
2021/03/15 13:08:46;;;;;;;2.90;1.10;;;19.60;43.90;;;;;;6172265;28;20421;-68
2021/03/15 13:11:47;;;;;;;6.22;1.27;;;19.70;44.50;;;;;;6174884;28;20046;-68
2021/03/15 13:14:48;;;;;;;3.78;1.13;;;19.70;45.10;;;;;;6174928;28;20170;-68
2021/03/15 13:17:51;;;;;;;1.25;0.82;;;19.70;45.20;;;;;;6193163;28;20050;-68
2021/03/15 13:20:51;;;;;;;4.68;1.25;;;19.70;46.10;;;;;;6198955;28;20022;-67
2021/03/15 13:23:52;;;;;;;6.13;0.70;;;19.70;45.50;;;;;;6198486;28;20034;-67
2021/03/15 13:26:53;;;;;;;3.08;0.85;;;19.70;45.60;;;;;;6216225;28;20377;-68
2021/03/15 13:29:53;;;;;;;1.58;1.00;;;19.70;45.70;;;;;;6208661;28;20482;-67
2021/03/15 13:32:53;;;;;;;1.65;1.05;;;19.70;45.80;;;;;;6198971;28;20105;-68
2021/03/15 13:35:54;;;;;;;2.10;0.88;;;19.70;45.80;;;;;;6198755;28;20034;-67
2021/03/15 13:38:55;;;;;;;5.63;0.82;;;19.70;45.70;;;;;;6198393;28;20033;-67
2021/03/15 13:41:56;;;;;;;6.47;1.10;;;19.60;44.10;;;;;;6198263;28;20079;-68
2021/03/15 13:44:57;;;;;;;1.98;0.90;;;19.60;44.10;;;;;;6198496;28;20038;-67
2021/03/15 13:47:58;;;;;;;3.45;0.93;;;19.70;44.80;;;;;;6198103;28;20421;-67
2021/03/15 13:50:58;;;;;;;2.38;1.00;;;19.70;45.00;;;;;;6196121;28;20084;-67
2021/03/15 13:53:59;;;;;;;1.48;0.90;;;19.70;45.10;;;;;;6197135;28;20027;-67
2021/03/15 13:56:59;;;;;;;3.90;0.90;;;19.70;45.30;;;;;;6198069;28;20504;-68
2021/03/15 14:00:00;;;;;;;2.25;0.77;;;19.70;45.30;;;;;;6203202;28;20033;-67
2021/03/15 14:03:00;;;;;;;3.85;1.10;;;19.70;45.40;;;;;;6197414;28;20049;-67
2021/03/15 14:06:01;;;;;;;3.17;0.93;;;19.70;45.50;;;;;;6198087;28;20027;-67
2021/03/15 14:09:01;;;;;;;2.08;0.90;;;19.70;45.50;;;;;;6220799;28;20033;-67
2021/03/15 14:12:03;;;;;;;1.58;0.90;;;19.70;45.50;;;;;;6222266;28;20065;-67
2021/03/15 14:15:05;;;;;;;1.23;0.75;;;19.70;45.60;;;;;;6221435;28;20373;-67
2021/03/15 14:18:06;;;;;;;6.97;0.90;;;19.70;45.60;;;;;;6221193;28;20056;-67
2021/03/15 14:21:07;;;;;;;1.90;0.75;;;19.70;45.60;;;;;;6220352;28;20481;-68
2021/03/15 14:24:08;;;;;;;1.67;0.90;;;19.70;45.70;;;;;;6205638;28;20516;-68
2021/03/15 14:27:09;;;;;;;1.35;0.60;;;19.70;45.70;;;;;;6196943;28;20556;-68
2021/03/15 14:30:10;;;;;;;2.03;0.80;;;19.70;45.70;;;;;;6197405;28;20030;-67
2021/03/15 14:33:11;;;;;;;1.00;0.50;;;19.70;45.70;;;;;;6215767;28;20516;-67
2021/03/15 14:36:11;;;;;;;2.25;0.90;;;19.70;45.80;;;;;;6205793;28;20038;-67
2021/03/15 14:39:12;;;;;;;1.73;0.90;;;19.70;45.80;;;;;;6197396;28;20088;-67
2021/03/15 14:42:13;;;;;;;0.80;0.55;;;19.70;45.80;;;;;;6196944;28;20027;-68
2021/03/15 14:45:14;;;;;;;1.38;0.60;;;19.70;45.80;;;;;;6213406;28;20049;-68
2021/03/15 14:48:15;;;;;;;1.20;0.60;;;19.70;45.80;;;;;;6212001;28;20035;-68
2021/03/15 14:51:15;;;;;;;1.75;0.75;;;19.70;45.90;;;;;;6196531;28;20026;-68
2021/03/15 14:54:16;;;;;;;1.20;0.68;;;19.70;45.80;;;;;;6196708;28;20030;-67
2021/03/15 14:57:16;;;;;;;1.30;0.60;;;19.70;45.90;;;;;;6210755;28;20161;-68
2021/03/15 15:00:19;;;;;;;0.77;0.52;;;19.70;45.90;;;;;;6208258;28;20030;-67
2021/03/15 15:03:19;;;;;;;0.95;0.60;;;19.70;45.90;;;;;;6196739;28;20402;-67
2021/03/15 15:06:20;;;;;;;1.45;0.73;;;19.70;46.00;;;;;;6218369;28;20037;-68
2021/03/15 15:09:20;;;;;;;1.42;0.57;;;19.70;46.00;;;;;;6219336;28;20033;-68
2021/03/15 15:12:21;;;;;;;1.98;0.70;;;19.70;46.00;;;;;;6220579;28;20101;-67
2021/03/15 15:15:22;;;;;;;2.30;0.70;;;19.70;46.00;;;;;;6220348;28;20128;-67
2021/03/15 15:18:22;;;;;;;1.13;0.60;;;19.70;46.00;;;;;;6212788;28;20050;-67
2021/03/15 15:21:23;;;;;;;2.53;0.73;;;19.70;46.00;;;;;;6207451;28;20037;-67
2021/03/15 15:24:23;;;;;;;2.28;0.65;;;19.70;46.10;;;;;;6203388;28;20041;-68
2021/03/15 15:27:25;;;;;;;1.08;0.50;;;19.70;46.80;;;;;;6211510;28;20037;-68
2021/03/15 15:30:29;;;;;;;0.80;0.50;;;19.70;46.10;;;;;;6219997;28;20104;-68
2021/03/15 15:33:30;;;;;;;0.50;0.40;;;19.70;46.10;;;;;;6211199;28;20027;-68
2021/03/15 15:36:31;;;;;;;1.00;0.60;;;19.70;46.10;;;;;;6194360;28;20100;-67
2021/03/15 15:39:31;;;;;;;1.50;0.90;;;19.70;46.10;;;;;;6207535;28;20120;-68
2021/03/15 15:42:32;;;;;;;1.70;0.60;;;19.70;46.10;;;;;;6195297;28;20101;-68
2021/03/15 15:45:33;;;;;;;3.78;0.60;;;19.70;46.10;;;;;;6192566;28;20085;-68
2021/03/15 15:48:33;;;;;;;0.95;0.60;;;19.70;46.10;;;;;;6195388;28;20030;-67
2021/03/15 15:51:34;;;;;;;1.33;0.40;;;19.70;46.10;;;;;;6194752;28;20519;-68
2021/03/15 15:54:34;;;;;;;0.40;0.40;;;19.70;46.20;;;;;;6207498;28;20107;-67